Weather at Anniston Regional Airport

Public forecast

Using degrees Fahrenheit for public forecast. Weather courtesy of forecast.io.

Current aviation weather report (METAR) for Anniston Regional Airport

Retrieved 2022/01/17 02:53 UTC (26 minutes ago):

KANB 170253Z AUTO 28013G19KT 10SM OVC012 03/01 A2978 RMK AO2 PK WND 28026/0235 SLP094 60000 T00330011 53022

Aviation forecast (TAF) for Anniston Regional Airport

Retrieved 2022-01-17 00:40 UTC (3 hours ago):

TAF KANB 162338Z 1700/1724 26011G19KT P6SM OVC011 TEMPO 1700/1703 -RASN FM171000 26009KT P6SM BKN009 FM171200 26009KT P6SM OVC008 FM171500 28011G20KT P6SM OVC011 FM172200 30009KT P6SM BKN026